sensor_id;sensor_type;location;lat;lon;timestamp;temperature;humidity
14749;DHT22;7466;53.574;9.976;2022-12-29T00:00:22;8.30;99.90
14749;DHT22;7466;53.574;9.976;2022-12-29T00:02:48;8.40;99.90
14749;DHT22;7466;53.574;9.976;2022-12-29T00:05:15;8.40;99.90
14749;DHT22;7466;53.574;9.976;2022-12-29T00:07:44;8.40;99.90
14749;DHT22;7466;53.574;9.976;2022-12-29T00:10:11;8.40;99.90
14749;DHT22;7466;53.574;9.976;2022-12-29T00:12:37;8.40;99.90
14749;DHT22;7466;53.574;9.976;2022-12-29T00:15:22;8.40;99.90
14749;DHT22;7466;53.574;9.976;2022-12-29T00:18:04;8.50;99.90
14749;DHT22;7466;53.574;9.976;2022-12-29T00:20:34;8.50;99.90
14749;DHT22;7466;53.574;9.976;2022-12-29T00:23:20;8.50;99.90
14749;DHT22;7466;53.574;9.976;2022-12-29T00:26:12;8.50;99.90
14749;DHT22;7466;53.574;9.976;2022-12-29T00:28:56;8.60;99.90
14749;DHT22;7466;53.574;9.976;2022-12-29T00:31:40;8.60;99.90
14749;DHT22;7466;53.574;9.976;2022-12-29T00:34:24;8.60;99.90
14749;DHT22;7466;53.574;9.976;2022-12-29T00:37:09;8.60;99.90
14749;DHT22;7466;53.574;9.976;2022-12-29T00:39:37;8.70;99.90
14749;DHT22;7466;53.574;9.976;2022-12-29T00:42:21;8.70;99.90
14749;DHT22;7466;53.574;9.976;2022-12-29T00:45:06;8.70;99.90
14749;DHT22;7466;53.574;9.976;2022-12-29T00:47:33;8.70;99.90
14749;DHT22;7466;53.574;9.976;2022-12-29T00:50:00;8.70;99.90
14749;DHT22;7466;53.574;9.976;2022-12-29T00:52:25;8.80;99.90
14749;DHT22;7466;53.574;9.976;2022-12-29T00:54:54;8.80;99.90
14749;DHT22;7466;53.574;9.976;2022-12-29T00:57:21;8.80;99.90
14749;DHT22;7466;53.574;9.976;2022-12-29T00:59:47;8.80;99.90
14749;DHT22;7466;53.574;9.976;2022-12-29T01:02:14;8.90;99.90
14749;DHT22;7466;53.574;9.976;2022-12-29T01:04:41;8.90;99.90
14749;DHT22;7466;53.574;9.976;2022-12-29T01:07:07;8.90;99.90
14749;DHT22;7466;53.574;9.976;2022-12-29T01:09:37;8.90;99.90
14749;DHT22;7466;53.574;9.976;2022-12-29T01:12:23;8.90;99.90
14749;DHT22;7466;53.574;9.976;2022-12-29T01:15:05;8.90;99.90
14749;DHT22;7466;53.574;9.976;2022-12-29T01:17:34;9.00;99.90
14749;DHT22;7466;53.574;9.976;2022-12-29T01:20:02;9.00;99.90
14749;DHT22;7466;53.574;9.976;2022-12-29T01:22:30;9.00;99.90
14749;DHT22;7466;53.574;9.976;2022-12-29T01:24:57;9.00;99.90
14749;DHT22;7466;53.574;9.976;2022-12-29T01:27:26;9.00;99.90
14749;DHT22;7466;53.574;9.976;2022-12-29T01:29:52;9.10;99.90
14749;DHT22;7466;53.574;9.976;2022-12-29T01:32:19;9.10;99.90
14749;DHT22;7466;53.574;9.976;2022-12-29T01:34:46;9.10;99.90
14749;DHT22;7466;53.574;9.976;2022-12-29T01:37:13;9.10;99.90
14749;DHT22;7466;53.574;9.976;2022-12-29T01:39:40;9.10;99.90
14749;DHT22;7466;53.574;9.976;2022-12-29T01:42:14;9.10;99.90
14749;DHT22;7466;53.574;9.976;2022-12-29T01:44:55;9.10;99.90
14749;DHT22;7466;53.574;9.976;2022-12-29T01:47:35;9.10;99.90
14749;DHT22;7466;53.574;9.976;2022-12-29T01:50:07;9.10;99.90
14749;DHT22;7466;53.574;9.976;2022-12-29T01:52:37;9.10;99.90
14749;DHT22;7466;53.574;9.976;2022-12-29T01:55:08;9.10;99.90
14749;DHT22;7466;53.574;9.976;2022-12-29T01:57:38;9.10;99.90
14749;DHT22;7466;53.574;9.976;2022-12-29T02:00:10;9.10;99.90
14749;DHT22;7466;53.574;9.976;2022-12-29T02:02:49;9.10;99.90
14749;DHT22;7466;53.574;9.976;2022-12-29T02:05:23;9.10;99.90
14749;DHT22;7466;53.574;9.976;2022-12-29T02:07:52;9.10;99.90
14749;DHT22;7466;53.574;9.976;2022-12-29T02:10:20;9.20;99.90
14749;DHT22;7466;53.574;9.976;2022-12-29T02:12:48;9.20;99.90
14749;DHT22;7466;53.574;9.976;2022-12-29T02:15:17;9.20;99.90
14749;DHT22;7466;53.574;9.976;2022-12-29T02:18:05;9.20;99.90
14749;DHT22;7466;53.574;9.976;2022-12-29T02:24:04;9.30;99.90
14749;DHT22;7466;53.574;9.976;2022-12-29T02:27:06;9.30;99.90
14749;DHT22;7466;53.574;9.976;2022-12-29T02:30:03;9.30;99.90
14749;DHT22;7466;53.574;9.976;2022-12-29T02:32:37;9.30;99.90
14749;DHT22;7466;53.574;9.976;2022-12-29T02:35:10;9.30;99.90
14749;DHT22;7466;53.574;9.976;2022-12-29T02:37:44;9.30;99.90
14749;DHT22;7466;53.574;9.976;2022-12-29T02:40:20;9.30;99.90
14749;DHT22;7466;53.574;9.976;2022-12-29T02:42:51;9.30;99.90
14749;DHT22;7466;53.574;9.976;2022-12-29T02:45:24;9.20;99.90
14749;DHT22;7466;53.574;9.976;2022-12-29T02:48:03;9.20;99.90
14749;DHT22;7466;53.574;9.976;2022-12-29T02:50:34;9.20;99.90
14749;DHT22;7466;53.574;9.976;2022-12-29T02:53:05;9.20;99.90
14749;DHT22;7466;53.574;9.976;2022-12-29T02:55:32;9.10;99.90
14749;DHT22;7466;53.574;9.976;2022-12-29T02:58:15;9.10;99.90
14749;DHT22;7466;53.574;9.976;2022-12-29T03:00:55;9.10;99.90
14749;DHT22;7466;53.574;9.976;2022-12-29T03:03:40;9.10;99.90
14749;DHT22;7466;53.574;9.976;2022-12-29T03:06:25;9.10;99.90
14749;DHT22;7466;53.574;9.976;2022-12-29T03:09:03;9.10;99.90
14749;DHT22;7466;53.574;9.976;2022-12-29T03:11:39;9.10;99.90
14749;DHT22;7466;53.574;9.976;2022-12-29T03:14:28;9.10;99.90
14749;DHT22;7466;53.574;9.976;2022-12-29T03:17:18;9.10;99.90
14749;DHT22;7466;53.574;9.976;2022-12-29T03:19:57;9.10;99.90
14749;DHT22;7466;53.574;9.976;2022-12-29T03:22:28;9.10;99.90
14749;DHT22;7466;53.574;9.976;2022-12-29T03:25:00;9.00;99.90
14749;DHT22;7466;53.574;9.976;2022-12-29T03:27:31;9.00;99.90
14749;DHT22;7466;53.574;9.976;2022-12-29T03:30:01;9.10;99.90
14749;DHT22;7466;53.574;9.976;2022-12-29T03:32:32;9.10;99.90
14749;DHT22;7466;53.574;9.976;2022-12-29T03:35:02;9.10;99.90
14749;DHT22;7466;53.574;9.976;2022-12-29T03:37:33;9.20;99.90
14749;DHT22;7466;53.574;9.976;2022-12-29T03:40:02;9.20;99.90
14749;DHT22;7466;53.574;9.976;2022-12-29T03:42:32;9.30;99.90
14749;DHT22;7466;53.574;9.976;2022-12-29T03:45:00;9.30;99.90
14749;DHT22;7466;53.574;9.976;2022-12-29T03:47:26;9.30;99.90
14749;DHT22;7466;53.574;9.976;2022-12-29T03:49:54;9.30;99.90
14749;DHT22;7466;53.574;9.976;2022-12-29T03:52:22;9.30;99.90
14749;DHT22;7466;53.574;9.976;2022-12-29T03:54:49;9.30;99.90
14749;DHT22;7466;53.574;9.976;2022-12-29T03:57:16;9.30;99.90
14749;DHT22;7466;53.574;9.976;2022-12-29T03:59:43;9.30;99.90
14749;DHT22;7466;53.574;9.976;2022-12-29T04:02:10;9.30;99.90
14749;DHT22;7466;53.574;9.976;2022-12-29T04:04:36;9.30;99.90
14749;DHT22;7466;53.574;9.976;2022-12-29T04:07:03;9.30;99.90
14749;DHT22;7466;53.574;9.976;2022-12-29T04:09:31;9.30;99.90
14749;DHT22;7466;53.574;9.976;2022-12-29T04:11:58;9.30;99.90
14749;DHT22;7466;53.574;9.976;2022-12-29T04:14:25;9.30;99.90
14749;DHT22;7466;53.574;9.976;2022-12-29T04:16:51;9.30;99.90
14749;DHT22;7466;53.574;9.976;2022-12-29T04:19:18;9.30;99.90
14749;DHT22;7466;53.574;9.976;2022-12-29T04:21:45;9.30;99.90
14749;DHT22;7466;53.574;9.976;2022-12-29T04:24:11;9.30;99.90
14749;DHT22;7466;53.574;9.976;2022-12-29T04:26:39;9.30;99.90
14749;DHT22;7466;53.574;9.976;2022-12-29T04:29:06;9.30;99.90
14749;DHT22;7466;53.574;9.976;2022-12-29T04:31:33;9.30;99.90
14749;DHT22;7466;53.574;9.976;2022-12-29T04:34:00;9.30;99.90
14749;DHT22;7466;53.574;9.976;2022-12-29T04:36:30;9.30;99.90
14749;DHT22;7466;53.574;9.976;2022-12-29T04:38:59;9.30;99.90
14749;DHT22;7466;53.574;9.976;2022-12-29T04:41:26;9.30;99.90
14749;DHT22;7466;53.574;9.976;2022-12-29T04:43:54;9.30;99.90
14749;DHT22;7466;53.574;9.976;2022-12-29T04:46:20;9.30;99.90
14749;DHT22;7466;53.574;9.976;2022-12-29T04:48:47;9.40;99.90
14749;DHT22;7466;53.574;9.976;2022-12-29T04:51:15;9.40;99.90
14749;DHT22;7466;53.574;9.976;2022-12-29T04:53:41;9.40;99.90
14749;DHT22;7466;53.574;9.976;2022-12-29T04:56:08;9.40;99.90
14749;DHT22;7466;53.574;9.976;2022-12-29T04:58:35;9.50;99.90
14749;DHT22;7466;53.574;9.976;2022-12-29T05:01:04;9.50;99.90
14749;DHT22;7466;53.574;9.976;2022-12-29T05:03:31;9.60;99.90
14749;DHT22;7466;53.574;9.976;2022-12-29T05:05:58;9.60;99.90
14749;DHT22;7466;53.574;9.976;2022-12-29T05:08:25;9.70;99.90
14749;DHT22;7466;53.574;9.976;2022-12-29T05:10:56;9.70;99.90
14749;DHT22;7466;53.574;9.976;2022-12-29T05:13:23;9.70;99.90
14749;DHT22;7466;53.574;9.976;2022-12-29T05:15:50;9.80;99.90
14749;DHT22;7466;53.574;9.976;2022-12-29T05:18:19;9.80;99.90
14749;DHT22;7466;53.574;9.976;2022-12-29T05:20:47;9.80;99.90
14749;DHT22;7466;53.574;9.976;2022-12-29T05:23:14;9.90;99.90
14749;DHT22;7466;53.574;9.976;2022-12-29T05:25:42;9.90;99.90
14749;DHT22;7466;53.574;9.976;2022-12-29T05:28:10;10.00;99.90
14749;DHT22;7466;53.574;9.976;2022-12-29T05:30:38;10.00;99.90
14749;DHT22;7466;53.574;9.976;2022-12-29T05:33:05;10.00;99.90
14749;DHT22;7466;53.574;9.976;2022-12-29T05:35:34;10.00;99.90
14749;DHT22;7466;53.574;9.976;2022-12-29T05:38:00;10.00;99.90
14749;DHT22;7466;53.574;9.976;2022-12-29T05:40:32;10.00;99.90
14749;DHT22;7466;53.574;9.976;2022-12-29T05:42:59;10.10;99.90
14749;DHT22;7466;53.574;9.976;2022-12-29T05:45:26;10.10;99.90
14749;DHT22;7466;53.574;9.976;2022-12-29T05:47:52;10.20;99.90
14749;DHT22;7466;53.574;9.976;2022-12-29T05:50:19;10.30;99.90
14749;DHT22;7466;53.574;9.976;2022-12-29T05:52:47;10.30;99.90
14749;DHT22;7466;53.574;9.976;2022-12-29T05:55:14;10.40;99.90
14749;DHT22;7466;53.574;9.976;2022-12-29T05:57:41;10.40;99.90
14749;DHT22;7466;53.574;9.976;2022-12-29T06:00:09;10.40;99.90
14749;DHT22;7466;53.574;9.976;2022-12-29T06:02:36;10.50;99.90
14749;DHT22;7466;53.574;9.976;2022-12-29T06:05:03;10.50;99.90
14749;DHT22;7466;53.574;9.976;2022-12-29T06:07:30;10.50;99.90
14749;DHT22;7466;53.574;9.976;2022-12-29T06:09:58;10.50;99.90
14749;DHT22;7466;53.574;9.976;2022-12-29T06:12:25;10.50;99.90
14749;DHT22;7466;53.574;9.976;2022-12-29T06:14:52;10.50;99.90
14749;DHT22;7466;53.574;9.976;2022-12-29T06:17:19;10.60;99.90
14749;DHT22;7466;53.574;9.976;2022-12-29T06:19:45;10.60;99.90
14749;DHT22;7466;53.574;9.976;2022-12-29T06:22:12;10.70;99.90
14749;DHT22;7466;53.574;9.976;2022-12-29T06:24:39;10.60;99.90
14749;DHT22;7466;53.574;9.976;2022-12-29T06:27:08;10.60;99.90
14749;DHT22;7466;53.574;9.976;2022-12-29T06:29:35;10.50;99.90
14749;DHT22;7466;53.574;9.976;2022-12-29T06:32:03;10.50;99.90
14749;DHT22;7466;53.574;9.976;2022-12-29T06:34:29;10.40;99.90
14749;DHT22;7466;53.574;9.976;2022-12-29T06:36:56;10.40;99.90
14749;DHT22;7466;53.574;9.976;2022-12-29T06:39:25;10.40;99.90
14749;DHT22;7466;53.574;9.976;2022-12-29T06:41:53;10.40;99.90
14749;DHT22;7466;53.574;9.976;2022-12-29T06:44:23;10.40;99.90
14749;DHT22;7466;53.574;9.976;2022-12-29T06:46:50;10.30;99.90
14749;DHT22;7466;53.574;9.976;2022-12-29T06:49:17;10.20;99.90
14749;DHT22;7466;53.574;9.976;2022-12-29T06:51:46;10.20;99.90
14749;DHT22;7466;53.574;9.976;2022-12-29T06:54:16;10.20;99.90
14749;DHT22;7466;53.574;9.976;2022-12-29T06:56:46;10.10;99.90
14749;DHT22;7466;53.574;9.976;2022-12-29T06:59:14;10.10;99.90
14749;DHT22;7466;53.574;9.976;2022-12-29T07:01:42;10.10;99.90
14749;DHT22;7466;53.574;9.976;2022-12-29T07:04:14;10.20;99.90
14749;DHT22;7466;53.574;9.976;2022-12-29T07:06:42;10.10;99.90
14749;DHT22;7466;53.574;9.976;2022-12-29T07:09:09;10.10;99.90
14749;DHT22;7466;53.574;9.976;2022-12-29T07:11:36;10.10;99.90
14749;DHT22;7466;53.574;9.976;2022-12-29T07:14:03;10.10;99.90
14749;DHT22;7466;53.574;9.976;2022-12-29T07:16:31;10.10;99.90
14749;DHT22;7466;53.574;9.976;2022-12-29T07:19:02;10.10;99.90
14749;DHT22;7466;53.574;9.976;2022-12-29T07:21:29;10.00;99.90
14749;DHT22;7466;53.574;9.976;2022-12-29T07:23:56;10.00;99.90
14749;DHT22;7466;53.574;9.976;2022-12-29T07:26:23;10.00;99.90
14749;DHT22;7466;53.574;9.976;2022-12-29T07:28:50;10.00;99.90
14749;DHT22;7466;53.574;9.976;2022-12-29T07:31:18;10.00;99.90
14749;DHT22;7466;53.574;9.976;2022-12-29T07:33:46;10.00;99.90
14749;DHT22;7466;53.574;9.976;2022-12-29T07:36:15;10.00;99.90
14749;DHT22;7466;53.574;9.976;2022-12-29T07:38:42;9.90;99.90
14749;DHT22;7466;53.574;9.976;2022-12-29T07:41:09;10.10;99.90
14749;DHT22;7466;53.574;9.976;2022-12-29T07:43:36;10.20;99.90
14749;DHT22;7466;53.574;9.976;2022-12-29T07:46:04;10.20;99.90
14749;DHT22;7466;53.574;9.976;2022-12-29T07:48:31;10.10;99.90
14749;DHT22;7466;53.574;9.976;2022-12-29T07:50:59;10.10;99.90
14749;DHT22;7466;53.574;9.976;2022-12-29T07:53:28;10.10;99.90
14749;DHT22;7466;53.574;9.976;2022-12-29T07:55:55;10.10;99.90
14749;DHT22;7466;53.574;9.976;2022-12-29T07:58:22;10.10;99.90
14749;DHT22;7466;53.574;9.976;2022-12-29T08:00:53;10.10;99.90
14749;DHT22;7466;53.574;9.976;2022-12-29T08:03:20;10.10;99.90
14749;DHT22;7466;53.574;9.976;2022-12-29T08:05:46;10.10;99.90
14749;DHT22;7466;53.574;9.976;2022-12-29T08:08:13;10.10;99.90
14749;DHT22;7466;53.574;9.976;2022-12-29T08:10:42;10.00;99.90
14749;DHT22;7466;53.574;9.976;2022-12-29T08:13:09;10.00;99.90
14749;DHT22;7466;53.574;9.976;2022-12-29T08:15:37;10.00;99.90
14749;DHT22;7466;53.574;9.976;2022-12-29T08:18:05;9.90;99.90
14749;DHT22;7466;53.574;9.976;2022-12-29T08:20:32;10.00;99.90
14749;DHT22;7466;53.574;9.976;2022-12-29T08:22:59;9.90;99.90
14749;DHT22;7466;53.574;9.976;2022-12-29T08:25:26;10.00;99.90
14749;DHT22;7466;53.574;9.976;2022-12-29T08:27:54;9.90;99.90
14749;DHT22;7466;53.574;9.976;2022-12-29T08:30:21;10.00;99.90
14749;DHT22;7466;53.574;9.976;2022-12-29T08:32:47;10.00;99.90
14749;DHT22;7466;53.574;9.976;2022-12-29T08:35:14;10.00;99.90
14749;DHT22;7466;53.574;9.976;2022-12-29T08:37:41;10.00;99.90
14749;DHT22;7466;53.574;9.976;2022-12-29T08:40:09;10.10;99.90
14749;DHT22;7466;53.574;9.976;2022-12-29T08:42:36;10.10;99.90
14749;DHT22;7466;53.574;9.976;2022-12-29T08:45:06;10.20;99.90
14749;DHT22;7466;53.574;9.976;2022-12-29T08:47:34;10.20;99.90
14749;DHT22;7466;53.574;9.976;2022-12-29T08:50:01;10.20;99.90
14749;DHT22;7466;53.574;9.976;2022-12-29T08:52:27;10.10;99.90
14749;DHT22;7466;53.574;9.976;2022-12-29T08:54:54;10.20;99.90
14749;DHT22;7466;53.574;9.976;2022-12-29T08:57:21;10.20;99.90
14749;DHT22;7466;53.574;9.976;2022-12-29T08:59:48;10.20;99.90
14749;DHT22;7466;53.574;9.976;2022-12-29T09:02:16;10.30;99.90
14749;DHT22;7466;53.574;9.976;2022-12-29T09:04:43;10.30;99.90
14749;DHT22;7466;53.574;9.976;2022-12-29T09:07:10;10.30;99.90
14749;DHT22;7466;53.574;9.976;2022-12-29T09:09:36;10.30;99.90
14749;DHT22;7466;53.574;9.976;2022-12-29T09:12:03;10.30;99.90
14749;DHT22;7466;53.574;9.976;2022-12-29T09:14:30;10.30;99.90
14749;DHT22;7466;53.574;9.976;2022-12-29T09:16:57;10.30;99.90
14749;DHT22;7466;53.574;9.976;2022-12-29T09:19:43;10.30;99.90
14749;DHT22;7466;53.574;9.976;2022-12-29T09:22:10;10.40;99.90
14749;DHT22;7466;53.574;9.976;2022-12-29T09:24:37;10.40;99.90
14749;DHT22;7466;53.574;9.976;2022-12-29T09:27:04;10.50;99.90
14749;DHT22;7466;53.574;9.976;2022-12-29T09:29:31;10.60;99.90
14749;DHT22;7466;53.574;9.976;2022-12-29T09:31:57;10.60;99.90
14749;DHT22;7466;53.574;9.976;2022-12-29T09:34:24;10.50;99.90
14749;DHT22;7466;53.574;9.976;2022-12-29T09:36:53;10.50;99.90
14749;DHT22;7466;53.574;9.976;2022-12-29T09:39:21;10.50;99.90
14749;DHT22;7466;53.574;9.976;2022-12-29T09:41:52;10.50;99.90
14749;DHT22;7466;53.574;9.976;2022-12-29T09:44:34;10.50;99.90
14749;DHT22;7466;53.574;9.976;2022-12-29T09:47:02;10.50;99.90
14749;DHT22;7466;53.574;9.976;2022-12-29T09:49:31;10.50;99.90
14749;DHT22;7466;53.574;9.976;2022-12-29T09:52:13;10.40;99.90
14749;DHT22;7466;53.574;9.976;2022-12-29T09:54:45;10.40;99.90
14749;DHT22;7466;53.574;9.976;2022-12-29T09:57:19;10.40;99.90
14749;DHT22;7466;53.574;9.976;2022-12-29T09:59:52;10.40;99.90
14749;DHT22;7466;53.574;9.976;2022-12-29T10:02:29;10.40;99.90
14749;DHT22;7466;53.574;9.976;2022-12-29T10:05:00;10.50;99.90
14749;DHT22;7466;53.574;9.976;2022-12-29T10:07:38;10.50;99.90
14749;DHT22;7466;53.574;9.976;2022-12-29T10:10:26;10.60;99.90
14749;DHT22;7466;53.574;9.976;2022-12-29T10:13:06;10.60;99.90
14749;DHT22;7466;53.574;9.976;2022-12-29T10:15:46;10.50;99.90
14749;DHT22;7466;53.574;9.976;2022-12-29T10:18:29;10.50;99.90
14749;DHT22;7466;53.574;9.976;2022-12-29T10:21:04;10.60;99.90
14749;DHT22;7466;53.574;9.976;2022-12-29T10:23:40;10.60;99.90
14749;DHT22;7466;53.574;9.976;2022-12-29T10:26:11;10.70;99.90
14749;DHT22;7466;53.574;9.976;2022-12-29T10:28:42;10.70;99.90
14749;DHT22;7466;53.574;9.976;2022-12-29T10:31:15;10.60;99.90
14749;DHT22;7466;53.574;9.976;2022-12-29T10:33:46;10.60;99.90
14749;DHT22;7466;53.574;9.976;2022-12-29T10:36:18;10.60;99.90
14749;DHT22;7466;53.574;9.976;2022-12-29T10:38:58;10.60;99.90
14749;DHT22;7466;53.574;9.976;2022-12-29T10:41:32;10.80;99.90
14749;DHT22;7466;53.574;9.976;2022-12-29T10:44:19;10.90;99.90
14749;DHT22;7466;53.574;9.976;2022-12-29T10:46:54;11.00;99.90
14749;DHT22;7466;53.574;9.976;2022-12-29T10:49:22;11.10;99.90
14749;DHT22;7466;53.574;9.976;2022-12-29T10:51:55;11.10;99.90
14749;DHT22;7466;53.574;9.976;2022-12-29T10:54:27;11.10;99.90
14749;DHT22;7466;53.574;9.976;2022-12-29T10:57:01;11.20;99.90
14749;DHT22;7466;53.574;9.976;2022-12-29T10:59:31;11.20;99.90
14749;DHT22;7466;53.574;9.976;2022-12-29T11:04:52;11.40;99.90
14749;DHT22;7466;53.574;9.976;2022-12-29T11:07:22;11.40;99.90
14749;DHT22;7466;53.574;9.976;2022-12-29T11:09:50;11.30;99.90
14749;DHT22;7466;53.574;9.976;2022-12-29T11:12:23;11.20;99.90
14749;DHT22;7466;53.574;9.976;2022-12-29T11:15:12;11.10;99.90
14749;DHT22;7466;53.574;9.976;2022-12-29T11:17:45;11.10;99.90
14749;DHT22;7466;53.574;9.976;2022-12-29T11:20:33;11.00;99.90
14749;DHT22;7466;53.574;9.976;2022-12-29T11:23:01;11.20;99.90
14749;DHT22;7466;53.574;9.976;2022-12-29T11:25:30;11.10;99.90
14749;DHT22;7466;53.574;9.976;2022-12-29T11:27:59;11.10;99.90
14749;DHT22;7466;53.574;9.976;2022-12-29T11:30:28;11.10;99.90
14749;DHT22;7466;53.574;9.976;2022-12-29T11:32:57;11.10;99.90
14749;DHT22;7466;53.574;9.976;2022-12-29T11:35:34;11.00;99.90
14749;DHT22;7466;53.574;9.976;2022-12-29T11:38:02;11.00;99.90
14749;DHT22;7466;53.574;9.976;2022-12-29T11:40:30;11.00;99.90
14749;DHT22;7466;53.574;9.976;2022-12-29T11:43:01;10.90;99.90
14749;DHT22;7466;53.574;9.976;2022-12-29T11:45:30;10.90;99.90
14749;DHT22;7466;53.574;9.976;2022-12-29T11:48:00;10.90;99.90
14749;DHT22;7466;53.574;9.976;2022-12-29T11:50:31;10.80;99.90
14749;DHT22;7466;53.574;9.976;2022-12-29T11:53:01;10.80;99.90
14749;DHT22;7466;53.574;9.976;2022-12-29T11:55:31;10.80;99.90
14749;DHT22;7466;53.574;9.976;2022-12-29T11:58:02;10.80;99.90
14749;DHT22;7466;53.574;9.976;2022-12-29T12:00:33;10.70;99.90
14749;DHT22;7466;53.574;9.976;2022-12-29T12:03:02;10.80;99.90
14749;DHT22;7466;53.574;9.976;2022-12-29T12:05:39;10.80;99.90
14749;DHT22;7466;53.574;9.976;2022-12-29T12:08:11;10.70;99.90
14749;DHT22;7466;53.574;9.976;2022-12-29T12:10:46;10.70;99.90
14749;DHT22;7466;53.574;9.976;2022-12-29T12:13:19;10.60;99.90
14749;DHT22;7466;53.574;9.976;2022-12-29T12:15:51;10.60;99.90
14749;DHT22;7466;53.574;9.976;2022-12-29T12:18:29;10.50;99.90
14749;DHT22;7466;53.574;9.976;2022-12-29T12:21:00;10.50;99.90
14749;DHT22;7466;53.574;9.976;2022-12-29T12:23:38;10.50;99.90
14749;DHT22;7466;53.574;9.976;2022-12-29T12:26:12;10.50;99.90
14749;DHT22;7466;53.574;9.976;2022-12-29T12:28:48;10.50;99.90
14749;DHT22;7466;53.574;9.976;2022-12-29T12:31:21;10.40;99.90
14749;DHT22;7466;53.574;9.976;2022-12-29T12:33:53;10.50;99.90
14749;DHT22;7466;53.574;9.976;2022-12-29T12:39:26;10.40;99.90
14749;DHT22;7466;53.574;9.976;2022-12-29T12:42:06;10.40;99.90
14749;DHT22;7466;53.574;9.976;2022-12-29T12:44:48;10.30;99.90
14749;DHT22;7466;53.574;9.976;2022-12-29T12:47:38;10.30;99.90
14749;DHT22;7466;53.574;9.976;2022-12-29T12:50:27;10.30;99.90
14749;DHT22;7466;53.574;9.976;2022-12-29T12:53:12;10.30;99.90
14749;DHT22;7466;53.574;9.976;2022-12-29T12:55:54;10.30;99.90
14749;DHT22;7466;53.574;9.976;2022-12-29T12:58:30;10.30;99.90
14749;DHT22;7466;53.574;9.976;2022-12-29T13:01:10;10.30;99.90
14749;DHT22;7466;53.574;9.976;2022-12-29T13:03:48;10.40;99.90
14749;DHT22;7466;53.574;9.976;2022-12-29T13:06:23;10.40;99.90
14749;DHT22;7466;53.574;9.976;2022-12-29T13:09:11;10.40;99.90
14749;DHT22;7466;53.574;9.976;2022-12-29T13:11:54;10.50;99.90
14749;DHT22;7466;53.574;9.976;2022-12-29T13:14:35;10.50;99.90
14749;DHT22;7466;53.574;9.976;2022-12-29T13:17:12;10.50;99.90
14749;DHT22;7466;53.574;9.976;2022-12-29T13:19:44;10.60;99.90
14749;DHT22;7466;53.574;9.976;2022-12-29T13:22:19;10.50;99.90
14749;DHT22;7466;53.574;9.976;2022-12-29T13:24:55;10.40;99.90
14749;DHT22;7466;53.574;9.976;2022-12-29T13:27:30;10.20;99.90
14749;DHT22;7466;53.574;9.976;2022-12-29T13:30:04;10.10;99.90
14749;DHT22;7466;53.574;9.976;2022-12-29T13:32:39;10.00;99.90
14749;DHT22;7466;53.574;9.976;2022-12-29T13:35:30;9.90;99.90
14749;DHT22;7466;53.574;9.976;2022-12-29T13:38:11;9.80;99.90
14749;DHT22;7466;53.574;9.976;2022-12-29T13:40:41;9.70;99.90
14749;DHT22;7466;53.574;9.976;2022-12-29T13:43:11;9.70;99.90
14749;DHT22;7466;53.574;9.976;2022-12-29T13:45:40;9.70;99.90
14749;DHT22;7466;53.574;9.976;2022-12-29T13:48:14;9.70;99.90
14749;DHT22;7466;53.574;9.976;2022-12-29T13:50:46;9.60;99.90
14749;DHT22;7466;53.574;9.976;2022-12-29T13:53:23;9.60;99.90
14749;DHT22;7466;53.574;9.976;2022-12-29T13:55:56;9.60;99.90
14749;DHT22;7466;53.574;9.976;2022-12-29T13:58:30;9.60;99.90
14749;DHT22;7466;53.574;9.976;2022-12-29T14:01:04;9.60;99.90
14749;DHT22;7466;53.574;9.976;2022-12-29T14:03:47;9.60;99.90
14749;DHT22;7466;53.574;9.976;2022-12-29T14:06:20;9.60;99.90
14749;DHT22;7466;53.574;9.976;2022-12-29T14:08:48;9.60;99.90
14749;DHT22;7466;53.574;9.976;2022-12-29T14:11:21;9.60;99.90
14749;DHT22;7466;53.574;9.976;2022-12-29T14:13:50;8.70;99.90
14749;DHT22;7466;53.574;9.976;2022-12-29T14:16:30;8.20;99.90
14749;DHT22;7466;53.574;9.976;2022-12-29T14:19:13;7.90;99.90
14749;DHT22;7466;53.574;9.976;2022-12-29T14:21:50;7.80;99.90
14749;DHT22;7466;53.574;9.976;2022-12-29T14:24:38;7.80;99.90
14749;DHT22;7466;53.574;9.976;2022-12-29T14:27:43;7.80;99.90
14749;DHT22;7466;53.574;9.976;2022-12-29T14:30:45;7.70;99.90
14749;DHT22;7466;53.574;9.976;2022-12-29T14:33:17;7.80;99.90
14749;DHT22;7466;53.574;9.976;2022-12-29T14:35:46;7.80;99.90
14749;DHT22;7466;53.574;9.976;2022-12-29T14:38:26;7.90;99.90
14749;DHT22;7466;53.574;9.976;2022-12-29T14:41:17;7.90;99.90
14749;DHT22;7466;53.574;9.976;2022-12-29T14:43:59;8.00;99.90
14749;DHT22;7466;53.574;9.976;2022-12-29T14:46:45;8.00;99.90
14749;DHT22;7466;53.574;9.976;2022-12-29T14:49:18;8.10;99.90
14749;DHT22;7466;53.574;9.976;2022-12-29T14:51:47;8.10;99.90
14749;DHT22;7466;53.574;9.976;2022-12-29T14:54:47;8.00;99.90
14749;DHT22;7466;53.574;9.976;2022-12-29T14:57:21;8.00;99.90
14749;DHT22;7466;53.574;9.976;2022-12-29T14:59:53;8.00;99.90
14749;DHT22;7466;53.574;9.976;2022-12-29T15:02:23;8.00;99.90
14749;DHT22;7466;53.574;9.976;2022-12-29T15:04:53;8.00;99.90
14749;DHT22;7466;53.574;9.976;2022-12-29T15:07:26;8.00;99.90
14749;DHT22;7466;53.574;9.976;2022-12-29T15:10:05;8.00;99.90
14749;DHT22;7466;53.574;9.976;2022-12-29T15:12:38;8.00;99.90
14749;DHT22;7466;53.574;9.976;2022-12-29T15:15:19;8.00;99.90
14749;DHT22;7466;53.574;9.976;2022-12-29T15:17:51;8.00;99.90
14749;DHT22;7466;53.574;9.976;2022-12-29T15:20:27;8.00;99.90
14749;DHT22;7466;53.574;9.976;2022-12-29T15:22:56;8.00;99.90
14749;DHT22;7466;53.574;9.976;2022-12-29T15:25:40;7.90;99.90
14749;DHT22;7466;53.574;9.976;2022-12-29T15:28:15;7.90;99.90
14749;DHT22;7466;53.574;9.976;2022-12-29T15:30:51;7.90;99.90
14749;DHT22;7466;53.574;9.976;2022-12-29T15:33:27;7.90;99.90
14749;DHT22;7466;53.574;9.976;2022-12-29T15:36:11;7.90;99.90
14749;DHT22;7466;53.574;9.976;2022-12-29T15:38:39;7.80;99.90
14749;DHT22;7466;53.574;9.976;2022-12-29T15:41:22;7.80;99.90
14749;DHT22;7466;53.574;9.976;2022-12-29T15:44:03;7.90;99.90
14749;DHT22;7466;53.574;9.976;2022-12-29T15:46:35;7.90;99.90
14749;DHT22;7466;53.574;9.976;2022-12-29T15:49:05;7.80;99.90
14749;DHT22;7466;53.574;9.976;2022-12-29T15:51:37;7.80;99.90
14749;DHT22;7466;53.574;9.976;2022-12-29T15:54:20;7.80;99.90
14749;DHT22;7466;53.574;9.976;2022-12-29T15:56:48;7.80;99.90
14749;DHT22;7466;53.574;9.976;2022-12-29T15:59:24;7.80;99.90
14749;DHT22;7466;53.574;9.976;2022-12-29T16:01:54;7.80;99.90
14749;DHT22;7466;53.574;9.976;2022-12-29T16:04:23;7.70;99.90
14749;DHT22;7466;53.574;9.976;2022-12-29T16:06:59;7.70;99.90
14749;DHT22;7466;53.574;9.976;2022-12-29T16:09:31;7.70;99.90
14749;DHT22;7466;53.574;9.976;2022-12-29T16:12:00;7.70;99.90
14749;DHT22;7466;53.574;9.976;2022-12-29T16:14:32;7.60;99.90
14749;DHT22;7466;53.574;9.976;2022-12-29T16:17:09;7.60;99.90
14749;DHT22;7466;53.574;9.976;2022-12-29T16:19:49;7.60;99.90
14749;DHT22;7466;53.574;9.976;2022-12-29T16:22:25;7.60;99.90
14749;DHT22;7466;53.574;9.976;2022-12-29T16:24:56;7.60;99.90
14749;DHT22;7466;53.574;9.976;2022-12-29T16:27:28;7.60;99.90
14749;DHT22;7466;53.574;9.976;2022-12-29T16:29:56;7.60;99.90
14749;DHT22;7466;53.574;9.976;2022-12-29T16:32:25;7.60;99.90
14749;DHT22;7466;53.574;9.976;2022-12-29T16:35:13;7.60;99.90